Union City, PA (16438)

12:13 PM EDT on May 27, 2015 (GMT -0400)
2 miles southeast of Mill Village | | Change Station
CLOSE
Current Station
Personal Weather Station
Location: Union City, PA
Elevation: 1572 ft
Nearby Weather Stations

Elev 1572 ft 41.86 °N, 79.94 °W | Updated 5 minutes ago

Partly Cloudy
Partly Cloudy
71.9 °F
Feels Like 74 °F
N
9.0
Wind Variable Wind from South
Gusts 19.0 mph

Today
High -- | Low -- °F
--% Chance of Precip.
Yesterday
High -- | Low -- °F
Precip. -- in
5:49 AM 8:44 PM
Waxing Gibbous, 68% visible
Pressure 30.05 in
Visibility 10.0 miles
Clouds Few 3300 ft
Scattered Clouds 3900 ft
Mostly Cloudy 6000 ft
Heat Index 74 °F
Dew Point 63 °F
Humidity 73%
Rainfall 0.00 in
Snow Depth Not available.
UV 5 out of 12
Pollen 7.50 out of 12
Air Quality Not available.
Flu Activity Sporadic
METAR KERI 271551Z 20011G22KT 10SM FEW033 SCT039 BKN060 26/16 A3006 RMK AO2 SLP174 T02560161

More Conditions Fewer Conditions

Pressure 30.05 in
Visibility 10.0 miles
Clouds Few 3300 ft
Scattered Clouds 3900 ft
Mostly Cloudy 6000 ft
Heat Index 74 °F
Dew Point 63 °F
Humidity 73%
Rainfall 0.00 in
Snow Depth Not available.
UV 5 out of 12
Pollen 7.50 out of 12
Air Quality Not available.
Flu Activity Sporadic
METAR KERI 271551Z 20011G22KT 10SM FEW033 SCT039 BKN060 26/16 A3006 RMK AO2 SLP174 T02560161

More Conditions Fewer Conditions

10-Day Weather Forecast

Almanac

Astronomy

May. 27, 2015 Rise Set
Actual Time
Civil Twilight
Nautical Twilight
Astronomical Twilight
Moon
Length of Visible Light
Length of Day
Tomorrow will be .
, % of the Moon is Illuminated

Today's Extremes

State Highs State Lows

Community

WunderPhotos

Upload Photos

1,824,707 photos uploaded!

WunderBlogs® & News

Nearby

Air Quality

  Air Quality AQ Index Pollutant
Not available.

Snow Depth

Station Depth Elevation

Earthquake Activity

City Distance Mag. Time & Date
Minimum magnitude displayed is 2.5.

Coastal Water Temperatures

Place Temperature

Stations

Nearby Weather Stations

Station Location Temp. Windchill Dew Point Humidity Wind Precip. Elev Updated Type